createdAt,value
2018-11-12T00:01:52.475Z,100722.59
2018-11-12T00:04:22.967Z,100716.30
2018-11-12T00:06:53.459Z,100716.20
2018-11-12T00:09:23.814Z,100712.02
2018-11-12T00:11:54.559Z,100715.20
2018-11-12T00:14:24.979Z,100712.40
2018-11-12T00:16:55.450Z,100716.92
2018-11-12T00:19:25.807Z,100714.76
2018-11-12T00:21:56.029Z,100720.58
2018-11-12T00:24:26.355Z,100738.39
2018-11-12T00:26:57.302Z,100735.27
2018-11-12T00:29:27.502Z,100732.75
2018-11-12T00:31:57.706Z,100746.34
2018-11-12T00:34:27.944Z,100733.97
2018-11-12T00:36:58.412Z,100733.88
2018-11-12T00:39:28.627Z,100731.53
2018-11-12T00:41:59.380Z,100732.27
2018-11-12T00:44:29.684Z,100729.92
2018-11-12T00:47:00.084Z,100735.02
2018-11-12T00:49:30.649Z,100727.03
2018-11-12T00:52:00.899Z,100731.56
2018-11-12T00:54:31.297Z,100736.75
2018-11-12T00:57:01.621Z,100738.57
2018-11-12T00:59:32.382Z,100746.63
2018-11-12T01:02:02.574Z,100743.92
2018-11-12T01:04:33.036Z,100747.06
2018-11-12T01:07:03.332Z,100750.23
2018-11-12T01:09:33.455Z,100758.91
2018-11-12T01:12:03.635Z,100751.98
2018-11-12T01:14:33.989Z,100751.20
2018-11-12T01:17:04.359Z,100740.42
2018-11-12T01:19:34.863Z,100735.23
2018-11-12T01:22:05.144Z,100729.59
2018-11-12T01:24:35.404Z,100731.11
2018-11-12T01:27:05.830Z,100745.01
2018-11-12T01:29:36.066Z,100757.02
2018-11-12T01:32:06.599Z,100756.91
2018-11-12T01:34:37.035Z,100759.38
2018-11-12T01:37:07.700Z,100763.52
2018-11-12T01:39:38.116Z,100770.95
2018-11-12T01:42:09.347Z,100774.91
2018-11-12T01:44:40.140Z,100767.14
2018-11-12T01:47:10.670Z,100758.80
2018-11-12T01:49:40.963Z,100752.51
2018-11-12T01:52:11.421Z,100750.19
2018-11-12T01:54:41.745Z,100744.05
2018-11-12T01:57:12.161Z,100738.14
2018-11-12T01:59:42.744Z,100742.48
2018-11-12T02:02:12.972Z,100733.44
2018-11-12T02:04:43.190Z,100733.48
2018-11-12T02:07:14.357Z,100738.64
2018-11-12T02:09:45.317Z,100750.56
2018-11-12T02:12:15.557Z,100754.58
2018-11-12T02:14:46.161Z,100738.23
2018-11-12T02:17:16.620Z,100730.77
2018-11-12T02:19:46.978Z,100715.60
2018-11-12T02:22:17.333Z,100717.47
2018-11-12T02:24:48.052Z,100711.77
2018-11-12T02:27:18.397Z,100704.81
2018-11-12T02:29:48.702Z,100703.49
2018-11-12T02:32:18.990Z,100709.25
2018-11-12T02:34:49.440Z,100701.85
2018-11-12T02:37:19.851Z,100696.16
2018-11-12T02:39:50.134Z,100697.10
2018-11-12T02:42:20.487Z,100690.25
2018-11-12T02:44:50.705Z,100674.27
2018-11-12T02:47:21.247Z,100667.14
2018-11-12T02:49:51.651Z,100668.20
2018-11-12T02:52:22.066Z,100667.67
2018-11-12T02:54:52.443Z,100665.98
2018-11-12T02:57:22.870Z,100672.85
2018-11-12T02:59:53.348Z,100673.12
2018-11-12T03:02:23.984Z,100669.38
2018-11-12T03:04:54.143Z,100678.23
2018-11-12T03:07:24.649Z,100689.02
2018-11-12T03:09:54.999Z,100694.36
2018-11-12T03:12:25.387Z,100702.17
2018-11-12T03:14:55.995Z,100713.53
2018-11-12T03:17:26.250Z,100718.02
2018-11-12T03:19:56.576Z,100712.52
2018-11-12T03:22:27.237Z,100701.91
2018-11-12T03:24:57.585Z,100698.73
2018-11-12T03:27:28.326Z,100702.01
2018-11-12T03:29:58.572Z,100708.67
2018-11-12T03:32:29.107Z,100707.97
2018-11-12T03:34:59.631Z,100720.88
2018-11-12T03:37:29.920Z,100724.52
2018-11-12T03:40:00.307Z,100732.80
2018-11-12T03:42:30.998Z,100739.45
2018-11-12T03:45:01.278Z,100746.31
2018-11-12T03:47:31.579Z,100764.77
2018-11-12T03:50:01.956Z,100756.99
2018-11-12T03:52:32.250Z,100755.94
2018-11-12T03:55:02.471Z,100750.13
2018-11-12T03:57:33.207Z,100749.75
2018-11-12T04:00:03.657Z,100752.13
2018-11-12T04:02:33.899Z,100752.77
2018-11-12T04:05:04.335Z,100748.05
2018-11-12T04:07:34.616Z,100747.50
2018-11-12T04:10:05.997Z,100735.87
2018-11-12T04:12:36.497Z,100737.66
2018-11-12T04:15:09.434Z,100731.33
2018-11-12T04:17:39.778Z,100722.09
2018-11-12T04:20:12.900Z,100722.66
2018-11-12T04:22:47.149Z,100725.99
2018-11-12T04:25:17.431Z,100718.23
2018-11-12T04:27:48.127Z,100720.39
2018-11-12T04:30:18.442Z,100724.05
2018-11-12T04:32:48.801Z,100711.78
2018-11-12T04:35:20.195Z,100710.69
2018-11-12T04:37:50.342Z,100692.55
2018-11-12T04:40:20.836Z,100691.29
2018-11-12T04:42:51.417Z,100693.67
2018-11-12T04:45:23.021Z,100696.69
2018-11-12T04:47:54.104Z,100711.36
2018-11-12T04:50:27.619Z,100713.83
2018-11-12T04:52:57.967Z,100712.63
2018-11-12T04:55:28.428Z,100716.06
2018-11-12T04:57:58.815Z,100707.66
2018-11-12T05:00:29.718Z,100714.89
2018-11-12T05:02:59.961Z,100711.15
2018-11-12T05:05:30.371Z,100717.64
2018-11-12T05:08:00.682Z,100708.09
2018-11-12T05:10:31.021Z,100703.42
2018-11-12T05:13:01.686Z,100690.16
2018-11-12T05:15:32.499Z,100704.59
2018-11-12T05:18:03.136Z,100711.47
2018-11-12T05:20:34.063Z,100714.58
2018-11-12T05:23:04.383Z,100716.80
2018-11-12T05:25:35.668Z,100719.23
2018-11-12T05:28:06.092Z,100721.64
2018-11-12T05:30:36.575Z,100706.80
2018-11-12T05:33:07.056Z,100688.06
2018-11-12T05:35:37.656Z,100671.35
2018-11-12T05:38:08.314Z,100668.90
2018-11-12T05:40:38.572Z,100680.63
2018-11-12T05:43:08.921Z,100688.02
2018-11-12T05:45:39.499Z,100680.41
2018-11-12T05:48:10.179Z,100679.52
2018-11-12T05:50:40.548Z,100680.63
2018-11-12T05:53:11.169Z,100683.20
2018-11-12T05:55:44.566Z,100684.25
2018-11-12T05:58:14.808Z,100678.59
2018-11-12T06:00:45.049Z,100685.73
2018-11-12T06:03:15.345Z,100689.66
2018-11-12T06:05:45.703Z,100688.27
2018-11-12T06:08:16.196Z,100693.17
2018-11-12T06:10:46.508Z,100691.77
2018-11-12T06:13:16.953Z,100708.98
2018-11-12T06:15:47.210Z,100707.97
2018-11-12T06:18:20.132Z,100712.58
2018-11-12T06:20:50.650Z,100722.52
2018-11-12T06:23:21.011Z,100715.16
2018-11-12T06:25:51.398Z,100729.38
2018-11-12T06:28:28.021Z,100727.95
2018-11-12T06:30:58.531Z,100703.69
2018-11-12T06:33:28.863Z,100723.88
2018-11-12T06:35:59.127Z,100735.40
2018-11-12T06:38:29.498Z,100726.36
2018-11-12T06:41:00.849Z,100755.69
2018-11-12T06:43:31.132Z,100764.88
2018-11-12T06:46:02.473Z,100750.08
2018-11-12T06:48:32.628Z,100745.69
2018-11-12T06:51:03.114Z,100752.20
2018-11-12T06:53:33.439Z,100742.64
2018-11-12T06:56:03.866Z,100739.30
2018-11-12T06:58:33.985Z,100755.48
2018-11-12T07:01:04.360Z,100765.72
2018-11-12T07:03:34.604Z,100740.14
2018-11-12T07:06:04.799Z,100722.44
2018-11-12T07:08:35.090Z,100753.94
2018-11-12T07:11:05.438Z,100734.61
2018-11-12T07:13:35.736Z,100699.41
2018-11-12T07:16:06.078Z,100713.56
2018-11-12T07:18:37.754Z,100718.50
2018-11-12T07:21:08.528Z,100707.96
2018-11-12T07:23:39.754Z,100705.63
2018-11-12T07:26:10.027Z,100714.06
2018-11-12T07:28:41.141Z,100704.00
2018-11-12T07:31:12.302Z,100703.59
2018-11-12T07:33:42.938Z,100716.07
2018-11-12T07:36:13.271Z,100723.36
2018-11-12T07:38:44.525Z,100708.66
2018-11-12T07:41:15.080Z,100699.19
2018-11-12T07:43:45.916Z,100690.31
2018-11-12T07:46:16.161Z,100697.96
2018-11-12T07:48:46.366Z,100693.81
2018-11-12T07:51:25.163Z,100695.03
2018-11-12T07:53:55.540Z,100687.58
2018-11-12T07:56:25.980Z,100690.75
2018-11-12T07:58:56.143Z,100687.52
2018-11-12T08:01:26.394Z,100690.91
2018-11-12T08:03:56.600Z,100692.90
2018-11-12T08:06:26.932Z,100687.52
2018-11-12T08:08:57.319Z,100694.75
2018-11-12T08:11:27.726Z,100687.20
2018-11-12T08:13:58.008Z,100676.95
2018-11-12T08:16:29.634Z,100682.23
2018-11-12T08:19:00.226Z,100673.52
2018-11-12T08:21:30.448Z,100675.66
2018-11-12T08:24:00.844Z,100672.22
2018-11-12T08:26:31.092Z,100665.77
2018-11-12T08:29:01.345Z,100673.88
2018-11-12T08:31:32.147Z,100660.74
2018-11-12T08:34:02.383Z,100663.21
2018-11-12T08:36:33.237Z,100657.78
2018-11-12T08:39:03.546Z,100648.68
2018-11-12T08:41:34.125Z,100642.77
2018-11-12T08:44:04.438Z,100647.12
2018-11-12T08:46:34.825Z,100643.06
2018-11-12T08:49:05.172Z,100630.71
2018-11-12T08:51:35.540Z,100632.12
2018-11-12T08:54:06.081Z,100633.98
2018-11-12T08:56:36.468Z,100644.70
2018-11-12T08:59:06.753Z,100642.92
2018-11-12T09:01:37.217Z,100634.75
2018-11-12T09:04:07.579Z,100638.49
2018-11-12T09:06:38.380Z,100635.40
2018-11-12T09:09:13.219Z,100628.58
2018-11-12T09:11:43.653Z,100630.40
2018-11-12T09:14:14.044Z,100632.94
2018-11-12T09:16:44.211Z,100631.76
2018-11-12T09:19:14.738Z,100631.03
2018-11-12T09:21:45.031Z,100635.03
2018-11-12T09:24:15.379Z,100636.17
2018-11-12T09:26:55.091Z,100635.22
2018-11-12T09:29:25.425Z,100640.48
2018-11-12T09:31:55.852Z,100639.56
2018-11-12T09:34:26.058Z,100645.60
2018-11-12T09:36:56.384Z,100640.11
2018-11-12T09:39:26.490Z,100638.02
2018-11-12T09:41:59.631Z,100631.69
2018-11-12T09:44:29.857Z,100636.25
2018-11-12T09:47:00.109Z,100631.21
2018-11-12T09:49:30.406Z,100626.59
2018-11-12T09:52:00.714Z,100638.66
2018-11-12T09:54:31.155Z,100627.20
2018-11-12T09:57:07.593Z,100641.97
2018-11-12T09:59:37.847Z,100638.45
2018-11-12T10:02:09.098Z,100644.00
2018-11-12T10:04:39.931Z,100642.17
2018-11-12T10:07:10.606Z,100642.29
2018-11-12T10:09:41.071Z,100637.31
2018-11-12T10:14:51.040Z,100665.03
2018-11-12T10:17:21.712Z,100661.30
2018-11-12T10:19:49.037Z,100663.41
2018-11-12T10:22:19.190Z,100656.69
2018-11-12T10:24:49.395Z,100646.34
2018-11-12T10:27:19.740Z,100653.14
2018-11-12T10:29:49.975Z,100657.08
2018-11-12T10:32:20.267Z,100652.62
2018-11-12T10:34:50.788Z,100654.72
2018-11-12T10:37:20.940Z,100652.22
2018-11-12T10:39:51.328Z,100657.87
2018-11-12T10:42:21.525Z,100645.56
2018-11-12T10:44:51.821Z,100633.86
2018-11-12T10:47:22.301Z,100645.09
2018-11-12T10:49:53.319Z,100645.67
2018-11-12T10:52:23.659Z,100649.31
2018-11-12T10:55:04.889Z,100653.73
2018-11-12T10:57:25.451Z,100642.40
2018-11-12T10:59:55.681Z,100649.45
2018-11-12T11:02:30.929Z,100645.78
2018-11-12T11:05:02.635Z,100648.73
2018-11-12T11:07:32.876Z,100653.81
2018-11-12T11:10:03.663Z,100659.99
2018-11-12T11:12:33.970Z,100654.25
2018-11-12T11:15:04.542Z,100656.90
2018-11-12T11:17:34.906Z,100652.81
2018-11-12T11:20:05.441Z,100653.70
2018-11-12T11:22:35.632Z,100645.25
2018-11-12T11:25:06.048Z,100644.21
2018-11-12T11:27:36.452Z,100637.98
2018-11-12T11:30:10.073Z,100643.70
2018-11-12T11:32:40.362Z,100652.78
2018-11-12T11:35:11.968Z,100656.38
2018-11-12T11:37:42.521Z,100653.52
2018-11-12T11:40:19.823Z,100654.65
2018-11-12T11:42:50.129Z,100650.65
2018-11-12T11:45:23.456Z,100651.80
2018-11-12T11:47:54.258Z,100660.48
2018-11-12T11:50:26.083Z,100650.36
2018-11-12T11:52:56.635Z,100651.06
2018-11-12T11:55:26.975Z,100637.91
2018-11-12T11:57:57.395Z,100650.16
2018-11-12T12:00:28.885Z,100652.51
2018-11-12T12:03:00.102Z,100657.42
2018-11-12T12:05:30.543Z,100661.33
2018-11-12T12:08:00.638Z,100669.88
2018-11-12T12:10:30.831Z,100673.29
2018-11-12T12:13:01.087Z,100668.62
2018-11-12T12:15:31.236Z,100664.41
2018-11-12T12:18:01.680Z,100672.98
2018-11-12T12:20:32.068Z,100679.93
2018-11-12T12:23:02.222Z,100683.98
2018-11-12T12:25:32.477Z,100686.05
2018-11-12T12:28:02.668Z,100693.89
2018-11-12T12:30:32.882Z,100687.41
2018-11-12T12:33:03.091Z,100684.69
2018-11-12T12:35:33.417Z,100661.31
2018-11-12T12:38:03.646Z,100669.48
2018-11-12T12:40:33.886Z,100682.95
2018-11-12T12:43:04.145Z,100676.92
2018-11-12T12:45:34.455Z,100685.42
2018-11-12T12:48:04.670Z,100713.59
2018-11-12T12:50:34.935Z,100703.46
2018-11-12T12:53:05.332Z,100692.48
2018-11-12T12:55:35.552Z,100714.27
2018-11-12T12:58:05.866Z,100713.93
2018-11-12T13:00:35.959Z,100701.66
2018-11-12T13:03:06.804Z,100708.23
2018-11-12T13:05:36.948Z,100709.48
2018-11-12T13:08:07.591Z,100704.78
2018-11-12T13:10:38.193Z,100707.87
2018-11-12T13:13:09.569Z,100718.59
2018-11-12T13:15:39.825Z,100713.34
2018-11-12T13:18:10.345Z,100732.52
2018-11-12T13:20:40.707Z,100721.22
2018-11-12T13:23:11.247Z,100735.56
2018-11-12T13:25:41.731Z,100732.55
2018-11-12T13:28:11.936Z,100740.95
2018-11-12T13:30:43.190Z,100736.70
2018-11-12T13:33:13.402Z,100748.61
2018-11-12T13:35:43.638Z,100750.89
2018-11-12T13:38:13.852Z,100742.51
2018-11-12T13:40:44.150Z,100747.53
2018-11-12T13:43:14.350Z,100756.48
2018-11-12T13:45:44.587Z,100754.86
2018-11-12T13:48:14.822Z,100759.45
2018-11-12T13:50:45.823Z,100766.16
2018-11-12T13:53:16.538Z,100764.66
2018-11-12T13:55:47.254Z,100767.01
2018-11-12T13:58:17.948Z,100772.83
2018-11-12T14:00:48.257Z,100768.68
2018-11-12T14:03:18.878Z,100767.88
2018-11-12T14:05:49.421Z,100777.34
2018-11-12T14:08:19.852Z,100774.57
2018-11-12T14:10:52.134Z,100781.14
2018-11-12T14:13:22.673Z,100775.58
2018-11-12T14:15:54.343Z,100773.20
2018-11-12T14:18:25.497Z,100786.80
2018-11-12T14:20:56.378Z,100787.15
2018-11-12T14:23:27.084Z,100792.54
2018-11-12T14:25:58.687Z,100793.32
2018-11-12T14:28:29.886Z,100795.31
2018-11-12T14:31:00.752Z,100808.72
2018-11-12T14:33:31.273Z,100812.69
2018-11-12T14:36:01.972Z,100815.01
2018-11-12T14:38:32.277Z,100812.75
2018-11-12T14:41:02.763Z,100820.45
2018-11-12T14:43:39.104Z,100814.59
2018-11-12T14:46:09.362Z,100823.54
2018-11-12T14:48:39.802Z,100824.02
2018-11-12T14:51:10.133Z,100831.45
2018-11-12T14:53:40.413Z,100840.28
2018-11-12T14:56:10.607Z,100852.42
2018-11-12T14:58:47.169Z,100860.13
2018-11-12T15:01:18.822Z,100857.61
2018-11-12T15:03:50.827Z,100866.34
2018-11-12T15:06:21.008Z,100871.75
2018-11-12T15:08:51.318Z,100874.55
2018-11-12T15:11:21.441Z,100876.88
2018-11-12T15:13:52.513Z,100887.28
2018-11-12T15:16:23.159Z,100888.31
2018-11-12T15:18:53.520Z,100887.41
2018-11-12T15:21:23.967Z,100878.05
2018-11-12T15:23:54.591Z,100886.98
2018-11-12T15:26:24.884Z,100890.95
2018-11-12T15:28:55.353Z,100897.94
2018-11-12T15:31:25.755Z,100898.36
2018-11-12T15:33:56.279Z,100904.55
2018-11-12T15:36:26.788Z,100904.13
2018-11-12T15:38:57.029Z,100904.23
2018-11-12T15:41:28.080Z,100900.05
2018-11-12T15:43:58.294Z,100897.76
2018-11-12T15:46:28.606Z,100901.14
2018-11-12T15:48:59.263Z,100903.14
2018-11-12T15:51:30.047Z,100909.54
2018-11-12T15:54:00.310Z,100908.89
2018-11-12T15:56:30.556Z,100919.20
2018-11-12T15:59:00.923Z,100921.78
2018-11-12T16:01:31.409Z,100924.60
2018-11-12T16:04:01.747Z,100934.64
2018-11-12T16:06:32.368Z,100940.45
2018-11-12T16:09:03.145Z,100950.11
2018-11-12T16:11:33.464Z,100958.02
2018-11-12T16:14:03.867Z,100970.38
2018-11-12T16:16:34.456Z,100973.38
2018-11-12T16:19:05.265Z,100989.03
2018-11-12T16:21:36.903Z,100998.75
2018-11-12T16:24:07.755Z,100994.44
2018-11-12T16:26:39.278Z,100995.96
2018-11-12T16:29:09.633Z,100998.13
2018-11-12T16:31:39.890Z,101004.92
2018-11-12T16:34:10.062Z,101000.20
2018-11-12T16:36:40.332Z,101006.26
2018-11-12T16:39:12.169Z,101015.78
2018-11-12T16:41:42.392Z,101025.83
2018-11-12T16:44:12.598Z,101037.06
2018-11-12T16:46:42.806Z,101046.31
2018-11-12T16:49:12.934Z,101052.70
2018-11-12T16:51:43.300Z,101053.91
2018-11-12T16:54:13.433Z,101057.27
2018-11-12T16:56:43.674Z,101052.05
2018-11-12T16:59:14.205Z,101049.02
2018-11-12T17:01:44.700Z,101049.82
2018-11-12T17:04:15.182Z,101049.54
2018-11-12T17:06:45.481Z,101053.64
2018-11-12T17:09:15.753Z,101050.81
2018-11-12T17:11:45.961Z,101072.14
2018-11-12T17:14:16.197Z,101068.84
2018-11-12T17:16:46.691Z,101084.22
2018-11-12T17:19:16.880Z,101086.48
2018-11-12T17:21:47.706Z,101093.61
2018-11-12T17:24:17.894Z,101101.06
2018-11-12T17:26:48.126Z,101107.80
2018-11-12T17:29:18.352Z,101105.73
2018-11-12T17:31:48.827Z,101109.03
2018-11-12T17:34:18.933Z,101091.53
2018-11-12T17:36:49.214Z,101099.59
2018-11-12T17:39:19.436Z,101117.11
2018-11-12T17:41:49.661Z,101122.81
2018-11-12T17:44:19.821Z,101125.64
2018-11-12T17:46:50.030Z,101139.91
2018-11-12T17:49:20.294Z,101144.16
2018-11-12T17:51:50.471Z,101138.73
2018-11-12T17:54:20.652Z,101130.89
2018-11-12T17:56:50.828Z,101139.05
2018-11-12T17:59:20.988Z,101137.30
2018-11-12T18:01:51.315Z,101150.19
2018-11-12T18:04:21.752Z,101162.19
2018-11-12T18:06:52.013Z,101161.67
2018-11-12T18:09:22.345Z,101184.89
2018-11-12T18:11:53.523Z,101181.02
2018-11-12T18:14:23.824Z,101170.06
2018-11-12T18:16:54.119Z,101165.30
2018-11-12T18:19:24.504Z,101176.63
2018-11-12T18:21:54.809Z,101169.50
2018-11-12T18:24:25.355Z,101184.64
2018-11-12T18:26:56.430Z,101194.89
2018-11-12T18:29:26.954Z,101191.77
2018-11-12T18:31:59.043Z,101183.52
2018-11-12T18:34:29.421Z,101191.38
2018-11-12T18:37:00.355Z,101195.12
2018-11-12T18:39:32.489Z,101194.33
2018-11-12T18:42:03.179Z,101208.26
2018-11-12T18:44:35.012Z,101214.99
2018-11-12T18:47:06.664Z,101222.92
2018-11-12T18:49:37.512Z,101225.20
2018-11-12T18:52:08.459Z,101223.05
2018-11-12T18:54:39.573Z,101215.22
2018-11-12T18:57:11.358Z,101232.73
2018-11-12T18:59:41.587Z,101233.16
2018-11-12T19:02:12.019Z,101221.45
2018-11-12T19:04:42.311Z,101245.83
2018-11-12T19:07:12.625Z,101246.59
2018-11-12T19:09:42.909Z,101231.55
2018-11-12T19:12:14.207Z,101237.09
2018-11-12T19:14:46.025Z,101233.72
2018-11-12T19:17:17.502Z,101224.22
2018-11-12T19:19:47.897Z,101211.31
2018-11-12T19:22:18.274Z,101228.88
2018-11-12T19:24:49.053Z,101240.90
2018-11-12T19:27:19.468Z,101231.23
2018-11-12T19:29:50.122Z,101229.55
2018-11-12T19:32:21.056Z,101224.53
2018-11-12T19:34:51.528Z,101230.17
2018-11-12T19:37:22.926Z,101220.73
2018-11-12T19:39:53.348Z,101211.19
2018-11-12T19:42:23.923Z,101209.87
2018-11-12T19:44:54.062Z,101235.30
2018-11-12T19:47:24.313Z,101252.71
2018-11-12T19:49:54.538Z,101259.60
2018-11-12T19:52:25.094Z,101262.28
2018-11-12T19:54:55.309Z,101259.00
2018-11-12T19:57:26.338Z,101277.95
2018-11-12T19:59:56.559Z,101277.48
2018-11-12T20:02:26.949Z,101272.50
2018-11-12T20:05:03.392Z,101263.69
2018-11-12T20:07:33.636Z,101275.22
2018-11-12T20:10:04.604Z,101287.69
2018-11-12T20:12:37.382Z,101284.55
2018-11-12T20:15:08.900Z,101288.25
2018-11-12T20:17:39.199Z,101277.84
2018-11-12T20:20:17.863Z,101268.50
2018-11-12T20:22:48.682Z,101271.08
2018-11-12T20:25:19.740Z,101272.58
2018-11-12T20:27:50.911Z,101266.27
2018-11-12T20:30:30.481Z,101268.27
2018-11-12T20:33:01.602Z,101272.45
2018-11-12T20:35:31.960Z,101279.26
2018-11-12T20:38:02.204Z,101284.88
2018-11-12T20:40:32.426Z,101303.81
2018-11-12T20:43:02.630Z,101299.99
2018-11-12T20:45:32.789Z,101302.97
2018-11-12T20:48:03.189Z,101291.36
2018-11-12T20:50:33.353Z,101289.34
2018-11-12T20:53:03.563Z,101294.86
2018-11-12T20:55:33.854Z,101283.18
2018-11-12T20:58:04.051Z,101283.41
2018-11-12T21:00:34.333Z,101294.93
2018-11-12T21:03:04.630Z,101288.14
2018-11-12T21:05:34.776Z,101289.14
2018-11-12T21:08:04.975Z,101291.28
2018-11-12T21:10:35.191Z,101296.09
2018-11-12T21:13:05.425Z,101285.50
2018-11-12T21:15:35.670Z,101297.83
2018-11-12T21:18:06.093Z,101298.34
2018-11-12T21:20:36.211Z,101296.59
2018-11-12T21:23:06.906Z,101285.00
2018-11-12T21:25:37.056Z,101275.34
2018-11-12T21:28:07.337Z,101280.97
2018-11-12T21:30:37.675Z,101276.50
2018-11-12T21:33:07.902Z,101283.34
2018-11-12T21:35:38.019Z,101289.19
2018-11-12T21:38:08.254Z,101289.69
2018-11-12T21:40:38.436Z,101301.80
2018-11-12T21:43:08.682Z,101299.23
2018-11-12T21:45:38.814Z,101301.45
2018-11-12T21:48:09.031Z,101300.36
2018-11-12T21:50:39.205Z,101297.02
2018-11-12T21:53:09.572Z,101295.38
2018-11-12T21:55:39.823Z,101291.04
2018-11-12T21:58:10.166Z,101294.57
2018-11-12T22:00:40.482Z,101299.34
2018-11-12T22:03:10.893Z,101300.45
2018-11-12T22:05:41.211Z,101313.53
2018-11-12T22:08:14.087Z,101316.59
2018-11-12T22:10:44.257Z,101327.28
2018-11-12T22:13:14.469Z,101325.62
2018-11-12T22:15:44.911Z,101316.89
2018-11-12T22:18:15.030Z,101308.16
2018-11-12T22:20:45.596Z,101306.66
2018-11-12T22:23:15.803Z,101314.67
2018-11-12T22:25:45.932Z,101320.34
2018-11-12T22:28:16.150Z,101311.06
2018-11-12T22:30:46.300Z,101319.23
2018-11-12T22:33:16.534Z,101317.20
2018-11-12T22:35:46.689Z,101324.61
2018-11-12T22:38:16.960Z,101331.56
2018-11-12T22:40:47.087Z,101337.03
2018-11-12T22:43:17.209Z,101340.11
2018-11-12T22:45:47.379Z,101341.00
2018-11-12T22:48:17.647Z,101336.55
2018-11-12T22:50:48.252Z,101351.38
2018-11-12T22:53:18.631Z,101349.16
2018-11-12T22:55:48.813Z,101367.39
2018-11-12T22:58:18.987Z,101367.00
2018-11-12T23:00:49.210Z,101360.02
2018-11-12T23:03:19.427Z,101363.36
2018-11-12T23:05:49.702Z,101361.47
2018-11-12T23:08:19.950Z,101359.64
2018-11-12T23:10:50.124Z,101359.55
2018-11-12T23:13:20.329Z,101365.98
2018-11-12T23:15:50.426Z,101371.22
2018-11-12T23:18:20.545Z,101373.20
2018-11-12T23:20:50.738Z,101365.98
2018-11-12T23:23:20.871Z,101370.00
2018-11-12T23:25:51.058Z,101374.39
2018-11-12T23:28:21.384Z,101359.84
2018-11-12T23:30:51.451Z,101363.63
2018-11-12T23:33:21.679Z,101359.10
2018-11-12T23:35:52.425Z,101359.17
2018-11-12T23:38:22.639Z,101358.28
2018-11-12T23:40:52.779Z,101345.38
2018-11-12T23:43:22.956Z,101345.64
2018-11-12T23:45:53.101Z,101339.80
2018-11-12T23:48:23.316Z,101334.63
2018-11-12T23:50:53.531Z,101337.55
2018-11-12T23:53:23.684Z,101340.19
2018-11-12T23:55:53.800Z,101341.22
2018-11-12T23:58:23.938Z,101348.17
